sensor_id;sensor_type;location;lat;lon;timestamp;pressure;altitude;pressure_sealevel;temperature;humidity
49835;BME280;35729;52.090;13.162;2023-05-10T00:00:14;100584.13;;;11.82;52.04
49835;BME280;35729;52.090;13.162;2023-05-10T00:02:43;100582.44;;;11.80;52.33
49835;BME280;35729;52.090;13.162;2023-05-10T00:05:14;100580.81;;;11.76;52.44
49835;BME280;35729;52.090;13.162;2023-05-10T00:07:43;100575.69;;;11.71;52.42
49835;BME280;35729;52.090;13.162;2023-05-10T00:10:11;100576.63;;;11.68;52.57
49835;BME280;35729;52.090;13.162;2023-05-10T00:12:40;100579.38;;;11.65;52.74
49835;BME280;35729;52.090;13.162;2023-05-10T00:15:09;100571.56;;;11.62;52.84
49835;BME280;35729;52.090;13.162;2023-05-10T00:17:37;100564.66;;;11.58;52.97
49835;BME280;35729;52.090;13.162;2023-05-10T00:20:07;100558.63;;;11.54;53.14
49835;BME280;35729;52.090;13.162;2023-05-10T00:22:38;100561.38;;;11.50;53.12
49835;BME280;35729;52.090;13.162;2023-05-10T00:25:08;100564.16;;;11.45;53.34
49835;BME280;35729;52.090;13.162;2023-05-10T00:27:37;100551.09;;;11.42;53.42
49835;BME280;35729;52.090;13.162;2023-05-10T00:30:06;100544.22;;;11.38;53.73
49835;BME280;35729;52.090;13.162;2023-05-10T00:32:35;100548.75;;;11.33;53.80
49835;BME280;35729;52.090;13.162;2023-05-10T00:35:04;100548.88;;;11.28;54.03
49835;BME280;35729;52.090;13.162;2023-05-10T00:37:33;100528.25;;;11.14;54.02
49835;BME280;35729;52.090;13.162;2023-05-10T00:40:05;100543.94;;;11.17;54.16
49835;BME280;35729;52.090;13.162;2023-05-10T00:42:34;100544.72;;;11.19;54.32
49835;BME280;35729;52.090;13.162;2023-05-10T00:45:03;100543.09;;;11.15;54.39
49835;BME280;35729;52.090;13.162;2023-05-10T00:47:32;100543.19;;;11.12;54.41
49835;BME280;35729;52.090;13.162;2023-05-10T00:50:01;100534.66;;;11.04;54.66
49835;BME280;35729;52.090;13.162;2023-05-10T00:52:30;100538.13;;;11.04;54.76
49835;BME280;35729;52.090;13.162;2023-05-10T00:55:00;100532.13;;;11.01;54.74
49835;BME280;35729;52.090;13.162;2023-05-10T00:57:31;100539.16;;;10.99;54.98
49835;BME280;35729;52.090;13.162;2023-05-10T01:00:00;100530.47;;;10.97;54.89
49835;BME280;35729;52.090;13.162;2023-05-10T01:02:29;100531.44;;;10.92;54.95
49835;BME280;35729;52.090;13.162;2023-05-10T01:04:58;100532.41;;;10.90;55.30
49835;BME280;35729;52.090;13.162;2023-05-10T01:07:27;100529.88;;;10.87;55.13
49835;BME280;35729;52.090;13.162;2023-05-10T01:09:55;100528.19;;;10.84;55.20
49835;BME280;35729;52.090;13.162;2023-05-10T01:12:24;100530.88;;;10.81;55.35
49835;BME280;35729;52.090;13.162;2023-05-10T01:15:10;100532.66;;;10.79;55.50
49835;BME280;35729;52.090;13.162;2023-05-10T01:17:40;100533.59;;;10.76;55.46
49835;BME280;35729;52.090;13.162;2023-05-10T01:20:11;100528.44;;;10.73;55.70
49835;BME280;35729;52.090;13.162;2023-05-10T01:23:02;100528.56;;;10.69;55.84
49835;BME280;35729;52.090;13.162;2023-05-10T01:25:49;100530.41;;;10.65;56.18
49835;BME280;35729;52.090;13.162;2023-05-10T01:28:46;100527.91;;;10.61;56.01
49835;BME280;35729;52.090;13.162;2023-05-10T01:34:26;100525.50;;;10.51;56.22
49835;BME280;35729;52.090;13.162;2023-05-10T01:37:02;100518.56;;;10.49;56.35
49835;BME280;35729;52.090;13.162;2023-05-10T01:39:35;100517.81;;;10.45;56.38
49835;BME280;35729;52.090;13.162;2023-05-10T01:42:09;100521.34;;;10.42;56.49
49835;BME280;35729;52.090;13.162;2023-05-10T01:44:41;100514.41;;;10.40;56.55
49835;BME280;35729;52.090;13.162;2023-05-10T01:47:14;100516.22;;;10.38;57.31
49835;BME280;35729;52.090;13.162;2023-05-10T01:49:50;100521.59;;;10.32;56.51
49835;BME280;35729;52.090;13.162;2023-05-10T01:52:25;100515.50;;;10.30;56.70
49835;BME280;35729;52.090;13.162;2023-05-10T01:54:58;100515.59;;;10.26;56.90
49835;BME280;35729;52.090;13.162;2023-05-10T01:57:35;100515.66;;;10.23;56.99
49835;BME280;35729;52.090;13.162;2023-05-10T02:00:07;100516.63;;;10.19;57.21
49835;BME280;35729;52.090;13.162;2023-05-10T02:02:39;100516.72;;;10.16;57.22
49835;BME280;35729;52.090;13.162;2023-05-10T02:05:12;100515.94;;;10.13;57.62
49835;BME280;35729;52.090;13.162;2023-05-10T02:07:41;100515.97;;;10.09;57.62
49835;BME280;35729;52.090;13.162;2023-05-10T02:10:10;100516.06;;;10.06;57.64
49835;BME280;35729;52.090;13.162;2023-05-10T02:12:47;100520.47;;;10.04;58.25
49835;BME280;35729;52.090;13.162;2023-05-10T02:15:20;100512.72;;;10.00;58.07
49835;BME280;35729;52.090;13.162;2023-05-10T02:17:49;100517.97;;;10.00;58.00
49835;BME280;35729;52.090;13.162;2023-05-10T02:20:27;100512.81;;;9.95;58.41
49835;BME280;35729;52.090;13.162;2023-05-10T02:22:57;100509.41;;;9.91;58.37
49835;BME280;35729;52.090;13.162;2023-05-10T02:25:27;100510.31;;;9.90;58.44
49835;BME280;35729;52.090;13.162;2023-05-10T02:27:57;100507.75;;;9.87;58.46
49835;BME280;35729;52.090;13.162;2023-05-10T02:30:26;100512.16;;;9.85;58.45
49835;BME280;35729;52.090;13.162;2023-05-10T02:32:56;100505.25;;;9.83;58.51
49835;BME280;35729;52.090;13.162;2023-05-10T02:35:27;100509.69;;;9.79;58.80
49835;BME280;35729;52.090;13.162;2023-05-10T02:37:57;100499.28;;;9.76;58.89
49835;BME280;35729;52.090;13.162;2023-05-10T02:40:27;100496.72;;;9.73;58.98
49835;BME280;35729;52.090;13.162;2023-05-10T02:42:57;100502.03;;;9.70;58.98
49835;BME280;35729;52.090;13.162;2023-05-10T02:45:30;100504.69;;;9.67;59.09
49835;BME280;35729;52.090;13.162;2023-05-10T02:47:59;100510.88;;;9.64;59.20
49835;BME280;35729;52.090;13.162;2023-05-10T02:50:32;100508.34;;;9.61;59.37
49835;BME280;35729;52.090;13.162;2023-05-10T02:53:09;100507.50;;;9.59;59.17
49835;BME280;35729;52.090;13.162;2023-05-10T02:55:40;100503.19;;;9.56;59.36
49835;BME280;35729;52.090;13.162;2023-05-10T02:58:09;100505.88;;;9.53;59.35
49835;BME280;35729;52.090;13.162;2023-05-10T03:00:37;100501.56;;;9.51;59.39
49835;BME280;35729;52.090;13.162;2023-05-10T03:03:06;100489.44;;;9.47;59.61
49835;BME280;35729;52.090;13.162;2023-05-10T03:05:37;100491.22;;;9.44;59.82
49835;BME280;35729;52.090;13.162;2023-05-10T03:08:06;100500.91;;;9.41;59.61
49835;BME280;35729;52.090;13.162;2023-05-10T03:10:40;100497.44;;;9.39;59.86
49835;BME280;35729;52.090;13.162;2023-05-10T03:13:17;100500.97;;;9.36;59.90
49835;BME280;35729;52.090;13.162;2023-05-10T03:15:57;100501.06;;;9.33;59.79
49835;BME280;35729;52.090;13.162;2023-05-10T03:18:30;100508.06;;;9.31;60.01
49835;BME280;35729;52.090;13.162;2023-05-10T03:21:04;100505.53;;;9.28;60.10
49835;BME280;35729;52.090;13.162;2023-05-10T03:23:43;100506.44;;;9.25;60.21
49835;BME280;35729;52.090;13.162;2023-05-10T03:26:17;100505.56;;;9.25;60.18
49835;BME280;35729;52.090;13.162;2023-05-10T03:28:47;100502.19;;;9.20;60.45
49835;BME280;35729;52.090;13.162;2023-05-10T03:31:17;100497.00;;;9.18;60.61
49835;BME280;35729;52.090;13.162;2023-05-10T03:33:46;100492.69;;;9.16;60.52
49835;BME280;35729;52.090;13.162;2023-05-10T03:36:18;100493.59;;;9.13;60.84
49835;BME280;35729;52.090;13.162;2023-05-10T03:38:47;100491.88;;;9.12;60.84
49835;BME280;35729;52.090;13.162;2023-05-10T03:41:15;100495.41;;;9.09;61.05
49835;BME280;35729;52.090;13.162;2023-05-10T03:43:43;100494.59;;;9.07;60.93
49835;BME280;35729;52.090;13.162;2023-05-10T03:46:12;100495.50;;;9.06;61.05
49835;BME280;35729;52.090;13.162;2023-05-10T03:48:40;100499.00;;;9.05;61.08
49835;BME280;35729;52.090;13.162;2023-05-10T03:51:09;100495.50;;;9.05;61.34
49835;BME280;35729;52.090;13.162;2023-05-10T03:53:40;100493.78;;;9.04;61.25
49835;BME280;35729;52.090;13.162;2023-05-10T03:56:08;100486.88;;;9.01;61.37
49835;BME280;35729;52.090;13.162;2023-05-10T03:58:37;100492.94;;;9.02;61.46
49835;BME280;35729;52.090;13.162;2023-05-10T04:01:05;100491.22;;;9.01;61.63
49835;BME280;35729;52.090;13.162;2023-05-10T04:03:34;100484.25;;;9.00;61.65
49835;BME280;35729;52.090;13.162;2023-05-10T04:06:04;100488.59;;;9.01;61.93
49835;BME280;35729;52.090;13.162;2023-05-10T04:08:34;100489.50;;;9.00;61.72
49835;BME280;35729;52.090;13.162;2023-05-10T04:11:09;100483.38;;;9.01;61.87
49835;BME280;35729;52.090;13.162;2023-05-10T04:13:39;100485.97;;;9.01;61.94
49835;BME280;35729;52.090;13.162;2023-05-10T04:16:08;100481.59;;;9.03;61.86
49835;BME280;35729;52.090;13.162;2023-05-10T04:18:37;100487.69;;;9.03;61.79
49835;BME280;35729;52.090;13.162;2023-05-10T04:21:11;100481.56;;;9.04;62.12
49835;BME280;35729;52.090;13.162;2023-05-10T04:23:39;100486.75;;;9.06;62.15
49835;BME280;35729;52.090;13.162;2023-05-10T04:26:11;100491.97;;;9.07;62.08
49835;BME280;35729;52.090;13.162;2023-05-10T04:28:39;100485.81;;;9.10;61.91
49835;BME280;35729;52.090;13.162;2023-05-10T04:31:09;100483.16;;;9.11;62.04
49835;BME280;35729;52.090;13.162;2023-05-10T04:33:38;100474.41;;;9.14;62.04
49835;BME280;35729;52.090;13.162;2023-05-10T04:36:07;100473.47;;;9.17;62.30
49835;BME280;35729;52.090;13.162;2023-05-10T04:38:36;100467.28;;;9.21;62.11
49835;BME280;35729;52.090;13.162;2023-05-10T04:41:05;100468.06;;;9.24;62.22
49835;BME280;35729;52.090;13.162;2023-05-10T04:43:37;100468.88;;;9.28;62.10
49835;BME280;35729;52.090;13.162;2023-05-10T04:46:06;100459.22;;;9.32;62.01
49835;BME280;35729;52.090;13.162;2023-05-10T04:48:34;100460.00;;;9.35;62.13
49835;BME280;35729;52.090;13.162;2023-05-10T04:51:03;100455.59;;;9.37;62.36
49835;BME280;35729;52.090;13.162;2023-05-10T04:53:32;100466.81;;;9.42;62.19
49835;BME280;35729;52.090;13.162;2023-05-10T04:56:00;100472.84;;;9.46;61.94
49835;BME280;35729;52.090;13.162;2023-05-10T04:58:29;100458.78;;;9.50;62.14
49835;BME280;35729;52.090;13.162;2023-05-10T05:01:04;100458.66;;;9.56;62.52
49835;BME280;35729;52.090;13.162;2023-05-10T05:03:33;100461.19;;;9.61;61.83
49835;BME280;35729;52.090;13.162;2023-05-10T05:06:02;100463.72;;;9.66;62.10
49835;BME280;35729;52.090;13.162;2023-05-10T05:08:31;100469.66;;;9.72;61.89
49835;BME280;35729;52.090;13.162;2023-05-10T05:10:59;100463.50;;;9.75;61.86
49835;BME280;35729;52.090;13.162;2023-05-10T05:13:28;100471.13;;;9.84;61.89
49835;BME280;35729;52.090;13.162;2023-05-10T05:15:56;100469.25;;;9.91;61.81
49835;BME280;35729;52.090;13.162;2023-05-10T05:18:27;100470.84;;;9.97;61.80
49835;BME280;35729;52.090;13.162;2023-05-10T05:20:56;100468.94;;;10.03;61.62
49835;BME280;35729;52.090;13.162;2023-05-10T05:23:24;100465.28;;;10.10;61.50
49835;BME280;35729;52.090;13.162;2023-05-10T05:25:53;100457.22;;;10.18;61.40
49835;BME280;35729;52.090;13.162;2023-05-10T05:28:21;100459.66;;;10.26;61.35
49835;BME280;35729;52.090;13.162;2023-05-10T05:30:50;100462.06;;;10.35;61.12
49835;BME280;35729;52.090;13.162;2023-05-10T05:33:18;100461.00;;;10.44;60.88
49835;BME280;35729;52.090;13.162;2023-05-10T05:35:49;100458.97;;;10.54;60.56
49835;BME280;35729;52.090;13.162;2023-05-10T05:38:18;100457.03;;;10.62;60.08
49835;BME280;35729;52.090;13.162;2023-05-10T05:40:46;100463.69;;;10.74;59.90
49835;BME280;35729;52.090;13.162;2023-05-10T05:43:15;100462.56;;;10.84;59.79
49835;BME280;35729;52.090;13.162;2023-05-10T05:45:43;100461.41;;;10.95;59.27
49835;BME280;35729;52.090;13.162;2023-05-10T05:48:12;100457.63;;;11.05;59.06
49835;BME280;35729;52.090;13.162;2023-05-10T05:50:40;100459.03;;;11.17;58.97
49835;BME280;35729;52.090;13.162;2023-05-10T05:53:11;100462.31;;;11.25;58.51
49835;BME280;35729;52.090;13.162;2023-05-10T05:55:40;100460.28;;;11.35;58.21
49835;BME280;35729;52.090;13.162;2023-05-10T05:58:08;100454.75;;;11.44;57.90
49835;BME280;35729;52.090;13.162;2023-05-10T06:00:37;100457.97;;;11.54;57.63
49835;BME280;35729;52.090;13.162;2023-05-10T06:03:05;100458.50;;;11.64;57.32
49835;BME280;35729;52.090;13.162;2023-05-10T06:05:34;100459.16;;;11.72;57.19
49835;BME280;35729;52.090;13.162;2023-05-10T06:08:02;100451.88;;;11.80;57.03
49835;BME280;35729;52.090;13.162;2023-05-10T06:10:34;100455.94;;;11.90;56.69
49835;BME280;35729;52.090;13.162;2023-05-10T06:13:02;100444.25;;;12.01;57.23
49835;BME280;35729;52.090;13.162;2023-05-10T06:15:31;100456.00;;;12.17;57.04
49835;BME280;35729;52.090;13.162;2023-05-10T06:18:00;100457.25;;;12.32;56.49
49835;BME280;35729;52.090;13.162;2023-05-10T06:20:28;100455.91;;;12.46;56.18
49835;BME280;35729;52.090;13.162;2023-05-10T06:22:57;100455.44;;;12.60;55.88
49835;BME280;35729;52.090;13.162;2023-05-10T06:25:25;100447.13;;;12.72;54.45
49835;BME280;35729;52.090;13.162;2023-05-10T06:27:56;100451.88;;;12.86;54.66
49835;BME280;35729;52.090;13.162;2023-05-10T06:30:25;100451.38;;;13.00;54.30
49835;BME280;35729;52.090;13.162;2023-05-10T06:32:54;100451.00;;;13.11;54.27
49835;BME280;35729;52.090;13.162;2023-05-10T06:35:23;100446.13;;;13.24;53.70
49835;BME280;35729;52.090;13.162;2023-05-10T06:37:51;100441.41;;;13.32;53.12
49835;BME280;35729;52.090;13.162;2023-05-10T06:40:42;100452.69;;;13.37;52.82
49835;BME280;35729;52.090;13.162;2023-05-10T06:43:13;100442.94;;;13.39;52.44
49835;BME280;35729;52.090;13.162;2023-05-10T06:45:42;100456.06;;;13.41;52.52
49835;BME280;35729;52.090;13.162;2023-05-10T06:48:10;100449.03;;;13.41;52.09
49835;BME280;35729;52.090;13.162;2023-05-10T06:50:39;100449.78;;;13.45;52.34
49835;BME280;35729;52.090;13.162;2023-05-10T06:53:07;100448.66;;;13.50;52.11
49835;BME280;35729;52.090;13.162;2023-05-10T06:55:37;100451.13;;;13.55;52.17
49835;BME280;35729;52.090;13.162;2023-05-10T06:58:05;100448.31;;;13.60;52.06
49835;BME280;35729;52.090;13.162;2023-05-10T07:00:36;100442.84;;;13.64;51.79
49835;BME280;35729;52.090;13.162;2023-05-10T07:03:08;100447.06;;;13.68;51.98
49835;BME280;35729;52.090;13.162;2023-05-10T07:05:37;100449.53;;;13.73;51.64
49835;BME280;35729;52.090;13.162;2023-05-10T07:08:05;100453.75;;;13.77;51.71
49835;BME280;35729;52.090;13.162;2023-05-10T07:10:34;100445.69;;;13.82;51.46
49835;BME280;35729;52.090;13.162;2023-05-10T07:13:02;100448.06;;;13.88;51.51
49835;BME280;35729;52.090;13.162;2023-05-10T07:15:40;100447.09;;;13.91;51.25
49835;BME280;35729;52.090;13.162;2023-05-10T07:18:08;100445.00;;;13.99;51.47
49835;BME280;35729;52.090;13.162;2023-05-10T07:20:37;100434.16;;;14.07;51.43
49835;BME280;35729;52.090;13.162;2023-05-10T07:23:06;100436.53;;;14.13;51.09
49835;BME280;35729;52.090;13.162;2023-05-10T07:25:34;100439.69;;;14.21;51.12
49835;BME280;35729;52.090;13.162;2023-05-10T07:28:03;100445.53;;;14.29;50.90
49835;BME280;35729;52.090;13.162;2023-05-10T07:30:32;100436.28;;;14.40;51.05
49835;BME280;35729;52.090;13.162;2023-05-10T07:33:03;100437.69;;;14.48;50.62
49835;BME280;35729;52.090;13.162;2023-05-10T07:35:31;100439.00;;;14.59;50.63
49835;BME280;35729;52.090;13.162;2023-05-10T07:37:59;100438.63;;;14.68;50.29
49835;BME280;35729;52.090;13.162;2023-05-10T07:40:28;100442.63;;;14.77;49.99
49835;BME280;35729;52.090;13.162;2023-05-10T07:42:57;100445.84;;;14.83;49.75
49835;BME280;35729;52.090;13.162;2023-05-10T07:45:27;100442.94;;;14.90;49.73
49835;BME280;35729;52.090;13.162;2023-05-10T07:47:55;100441.66;;;14.98;49.61
49835;BME280;35729;52.090;13.162;2023-05-10T07:50:26;100440.56;;;15.04;49.31
49835;BME280;35729;52.090;13.162;2023-05-10T07:52:55;100442.84;;;15.12;49.32
49835;BME280;35729;52.090;13.162;2023-05-10T07:55:24;100447.69;;;15.21;48.87
49835;BME280;35729;52.090;13.162;2023-05-10T07:57:52;100448.28;;;15.28;48.91
49835;BME280;35729;52.090;13.162;2023-05-10T08:00:20;100449.69;;;15.35;48.87
49835;BME280;35729;52.090;13.162;2023-05-10T08:02:49;100447.56;;;15.43;48.39
49835;BME280;35729;52.090;13.162;2023-05-10T08:05:18;100449.84;;;15.51;48.36
49835;BME280;35729;52.090;13.162;2023-05-10T08:07:49;100446.84;;;15.59;48.31
49835;BME280;35729;52.090;13.162;2023-05-10T08:10:17;100445.72;;;15.64;47.95
49835;BME280;35729;52.090;13.162;2023-05-10T08:12:46;100450.63;;;15.72;47.99
49835;BME280;35729;52.090;13.162;2023-05-10T08:15:27;100450.13;;;15.83;47.46
49835;BME280;35729;52.090;13.162;2023-05-10T08:18:01;100451.63;;;15.89;47.71
49835;BME280;35729;52.090;13.162;2023-05-10T08:20:30;100445.97;;;15.96;47.59
49835;BME280;35729;52.090;13.162;2023-05-10T08:23:01;100442.16;;;16.02;47.40
49835;BME280;35729;52.090;13.162;2023-05-10T08:25:29;100441.78;;;16.10;47.39
49835;BME280;35729;52.090;13.162;2023-05-10T08:27:58;100445.91;;;16.16;47.21
49835;BME280;35729;52.090;13.162;2023-05-10T08:30:26;100443.97;;;16.19;46.78
49835;BME280;35729;52.090;13.162;2023-05-10T08:32:55;100456.03;;;16.25;46.78
49835;BME280;35729;52.090;13.162;2023-05-10T08:35:23;100452.31;;;16.29;46.56
49835;BME280;35729;52.090;13.162;2023-05-10T08:37:52;100452.00;;;16.35;46.54
49835;BME280;35729;52.090;13.162;2023-05-10T08:40:24;100454.31;;;16.41;46.43
49835;BME280;35729;52.090;13.162;2023-05-10T08:42:58;100460.09;;;16.50;46.41
49835;BME280;35729;52.090;13.162;2023-05-10T08:45:28;100456.19;;;16.57;46.34
49835;BME280;35729;52.090;13.162;2023-05-10T08:48:01;100450.41;;;16.66;46.25
49835;BME280;35729;52.090;13.162;2023-05-10T08:50:31;100455.31;;;16.74;46.05
49835;BME280;35729;52.090;13.162;2023-05-10T08:53:00;100453.03;;;16.84;45.81
49835;BME280;35729;52.090;13.162;2023-05-10T08:55:35;100457.97;;;16.91;45.61
49835;BME280;35729;52.090;13.162;2023-05-10T08:58:04;100458.34;;;17.01;45.75
49835;BME280;35729;52.090;13.162;2023-05-10T09:00:33;100460.59;;;17.09;45.56
49835;BME280;35729;52.090;13.162;2023-05-10T09:03:04;100461.88;;;17.18;45.16
49835;BME280;35729;52.090;13.162;2023-05-10T09:05:33;100459.66;;;17.26;45.32
49835;BME280;35729;52.090;13.162;2023-05-10T09:08:01;100459.19;;;17.35;45.14
49835;BME280;35729;52.090;13.162;2023-05-10T09:10:30;100451.81;;;17.40;45.05
49835;BME280;35729;52.090;13.162;2023-05-10T09:13:02;100459.34;;;17.48;44.30
49835;BME280;35729;52.090;13.162;2023-05-10T09:15:31;100454.56;;;17.55;44.47
49835;BME280;35729;52.090;13.162;2023-05-10T09:17:59;100460.44;;;17.60;44.60
49835;BME280;35729;52.090;13.162;2023-05-10T09:20:28;100463.66;;;17.67;44.14
49835;BME280;35729;52.090;13.162;2023-05-10T09:22:57;100467.56;;;17.75;43.90
49835;BME280;35729;52.090;13.162;2023-05-10T09:25:25;100457.38;;;17.84;43.87
49835;BME280;35729;52.090;13.162;2023-05-10T09:27:54;100461.41;;;17.91;43.75
49835;BME280;35729;52.090;13.162;2023-05-10T09:30:27;100460.03;;;18.00;43.45
49835;BME280;35729;52.090;13.162;2023-05-10T09:32:57;100460.34;;;18.10;43.58
49835;BME280;35729;52.090;13.162;2023-05-10T09:35:28;100463.44;;;18.18;43.48
49835;BME280;35729;52.090;13.162;2023-05-10T09:37:58;100462.28;;;18.22;43.02
49835;BME280;35729;52.090;13.162;2023-05-10T09:40:29;100459.28;;;18.28;42.88
49835;BME280;35729;52.090;13.162;2023-05-10T09:42:59;100462.53;;;18.33;42.78
49835;BME280;35729;52.090;13.162;2023-05-10T09:45:32;100459.72;;;18.36;42.45
49835;BME280;35729;52.090;13.162;2023-05-10T09:48:02;100463.69;;;18.44;42.50
49835;BME280;35729;52.090;13.162;2023-05-10T09:50:31;100471.22;;;18.51;42.61
49835;BME280;35729;52.090;13.162;2023-05-10T09:53:01;100463.75;;;18.58;42.28
49835;BME280;35729;52.090;13.162;2023-05-10T09:55:39;100457.13;;;18.65;41.58
49835;BME280;35729;52.090;13.162;2023-05-10T09:58:10;100464.69;;;18.71;42.11
49835;BME280;35729;52.090;13.162;2023-05-10T10:00:43;100464.25;;;18.79;41.37
49835;BME280;35729;52.090;13.162;2023-05-10T10:03:13;100463.09;;;18.83;41.80
49835;BME280;35729;52.090;13.162;2023-05-10T10:05:43;100464.38;;;18.92;41.50
49835;BME280;35729;52.090;13.162;2023-05-10T10:08:13;100456.88;;;18.99;41.69
49835;BME280;35729;52.090;13.162;2023-05-10T10:10:42;100455.72;;;19.03;40.59
49835;BME280;35729;52.090;13.162;2023-05-10T10:13:11;100457.28;;;19.07;40.94
49835;BME280;35729;52.090;13.162;2023-05-10T10:15:49;100454.31;;;19.12;40.48
49835;BME280;35729;52.090;13.162;2023-05-10T10:18:24;100450.53;;;19.16;40.66
49835;BME280;35729;52.090;13.162;2023-05-10T10:20:54;100447.56;;;19.20;40.68
49835;BME280;35729;52.090;13.162;2023-05-10T10:23:23;100456.03;;;19.27;40.70
49835;BME280;35729;52.090;13.162;2023-05-10T10:25:53;100454.88;;;19.31;40.18
49835;BME280;35729;52.090;13.162;2023-05-10T10:28:31;100455.34;;;19.38;40.62
49835;BME280;35729;52.090;13.162;2023-05-10T10:31:15;100442.81;;;19.40;39.49
49835;BME280;35729;52.090;13.162;2023-05-10T10:33:59;100452.19;;;19.46;39.51
49835;BME280;35729;52.090;13.162;2023-05-10T10:36:29;100454.47;;;19.52;39.48
49835;BME280;35729;52.090;13.162;2023-05-10T10:39:00;100440.75;;;19.58;39.69
49835;BME280;35729;52.090;13.162;2023-05-10T10:41:33;100439.41;;;19.65;38.95
49835;BME280;35729;52.090;13.162;2023-05-10T10:44:24;100450.13;;;19.78;38.68
49835;BME280;35729;52.090;13.162;2023-05-10T10:47:04;100437.75;;;19.92;38.31
49835;BME280;35729;52.090;13.162;2023-05-10T10:49:38;100447.69;;;20.02;38.85
49835;BME280;35729;52.090;13.162;2023-05-10T10:52:20;100431.84;;;20.14;38.80
49835;BME280;35729;52.090;13.162;2023-05-10T10:54:52;100445.41;;;20.24;38.81
49835;BME280;35729;52.090;13.162;2023-05-10T10:57:21;100438.59;;;20.32;38.29
49835;BME280;35729;52.090;13.162;2023-05-10T10:59:53;100440.94;;;20.37;37.89
49835;BME280;35729;52.090;13.162;2023-05-10T11:02:43;100441.41;;;20.44;37.82
49835;BME280;35729;52.090;13.162;2023-05-10T11:08:20;100441.41;;;20.70;37.32
49835;BME280;35729;52.090;13.162;2023-05-10T11:11:03;100434.50;;;20.80;37.03
49835;BME280;35729;52.090;13.162;2023-05-10T11:13:34;100442.06;;;20.86;37.25
49835;BME280;35729;52.090;13.162;2023-05-10T11:16:14;100434.41;;;20.94;36.23
49835;BME280;35729;52.090;13.162;2023-05-10T11:19:03;100442.69;;;21.03;36.26
49835;BME280;35729;52.090;13.162;2023-05-10T11:21:33;100447.28;;;21.13;36.47
49835;BME280;35729;52.090;13.162;2023-05-10T11:24:13;100443.09;;;21.22;36.20
49835;BME280;35729;52.090;13.162;2023-05-10T11:26:42;100440.72;;;21.30;36.61
49835;BME280;35729;52.090;13.162;2023-05-10T11:29:12;100435.38;;;21.43;36.38
49835;BME280;35729;52.090;13.162;2023-05-10T11:31:45;100438.03;;;21.56;35.70
49835;BME280;35729;52.090;13.162;2023-05-10T11:34:26;100435.44;;;21.68;35.00
49835;BME280;35729;52.090;13.162;2023-05-10T11:36:56;100445.81;;;21.84;35.55
49835;BME280;35729;52.090;13.162;2023-05-10T11:39:26;100440.19;;;22.00;35.53
49835;BME280;35729;52.090;13.162;2023-05-10T11:41:55;100429.34;;;22.14;34.95
49835;BME280;35729;52.090;13.162;2023-05-10T11:44:27;100432.31;;;22.34;34.77
49835;BME280;35729;52.090;13.162;2023-05-10T11:46:58;100433.94;;;22.48;34.87
49835;BME280;35729;52.090;13.162;2023-05-10T11:49:29;100433.88;;;22.72;34.02
49835;BME280;35729;52.090;13.162;2023-05-10T11:52:07;100442.66;;;22.97;33.14
49835;BME280;35729;52.090;13.162;2023-05-10T11:54:36;100434.66;;;23.19;33.37
49835;BME280;35729;52.090;13.162;2023-05-10T11:57:05;100440.94;;;23.41;33.12
49835;BME280;35729;52.090;13.162;2023-05-10T11:59:33;100435.56;;;23.64;33.06
49835;BME280;35729;52.090;13.162;2023-05-10T12:02:02;100437.59;;;23.71;32.26
49835;BME280;35729;52.090;13.162;2023-05-10T12:04:33;100437.56;;;23.83;32.63
49835;BME280;35729;52.090;13.162;2023-05-10T12:07:02;100440.56;;;24.01;32.21
49835;BME280;35729;52.090;13.162;2023-05-10T12:09:30;100448.03;;;24.18;31.30
49835;BME280;35729;52.090;13.162;2023-05-10T12:11:59;100444.19;;;24.32;30.90
49835;BME280;35729;52.090;13.162;2023-05-10T12:14:27;100452.50;;;24.50;31.03
49835;BME280;35729;52.090;13.162;2023-05-10T12:16:58;100441.09;;;24.69;30.69
49835;BME280;35729;52.090;13.162;2023-05-10T12:19:27;100440.88;;;24.82;29.86
49835;BME280;35729;52.090;13.162;2023-05-10T12:21:58;100446.00;;;24.95;29.76
49835;BME280;35729;52.090;13.162;2023-05-10T12:24:26;100442.13;;;25.09;30.05
49835;BME280;35729;52.090;13.162;2023-05-10T12:26:55;100442.59;;;25.24;29.82
49835;BME280;35729;52.090;13.162;2023-05-10T12:29:23;100453.84;;;25.39;29.74
49835;BME280;35729;52.090;13.162;2023-05-10T12:31:53;100434.75;;;25.42;28.93
49835;BME280;35729;52.090;13.162;2023-05-10T12:34:26;100450.34;;;25.48;29.35
49835;BME280;35729;52.090;13.162;2023-05-10T12:36:58;100448.78;;;25.46;29.19
49835;BME280;35729;52.090;13.162;2023-05-10T12:39:38;100453.41;;;25.44;29.15
49835;BME280;35729;52.090;13.162;2023-05-10T12:42:06;100449.59;;;25.36;29.66
49835;BME280;35729;52.090;13.162;2023-05-10T12:44:35;100451.50;;;25.25;29.76
49835;BME280;35729;52.090;13.162;2023-05-10T12:47:03;100454.03;;;25.16;29.75
49835;BME280;35729;52.090;13.162;2023-05-10T12:49:32;100450.47;;;25.06;29.61
49835;BME280;35729;52.090;13.162;2023-05-10T12:52:03;100460.41;;;24.94;29.34
49835;BME280;35729;52.090;13.162;2023-05-10T12:54:31;100447.38;;;24.89;29.69
49835;BME280;35729;52.090;13.162;2023-05-10T12:57:00;100459.13;;;24.88;29.56
49835;BME280;35729;52.090;13.162;2023-05-10T12:59:28;100456.44;;;24.88;29.77
49835;BME280;35729;52.090;13.162;2023-05-10T13:01:57;100456.31;;;24.90;30.06
49835;BME280;35729;52.090;13.162;2023-05-10T13:04:25;100448.50;;;24.87;29.65
49835;BME280;35729;52.090;13.162;2023-05-10T13:06:54;100452.22;;;24.96;29.58